Time;durP1;ratioP1;P1;durP2;ratioP2;P2;SDS_P1;SDS_P2;PMS_P1;PMS_P2;Temp;Humidity;BMP_temperature;BMP_pressure;BME280_temperature;BME280_humidity;BME280_pressure;Samples;Min_cycle;Max_cycle;Signal;HPM_P1;HPM_P2
2023/01/13 00:00:57;;;;;;;2.27;1.10;;;7.40;99.90;;;;;;5024942;28;20123;-90
2023/01/13 00:03:22;;;;;;;1.77;0.90;;;7.40;99.90;;;;;;5009873;28;20425;-92
2023/01/13 00:05:48;;;;;;;3.97;1.20;;;7.50;99.90;;;;;;5029677;28;20030;-90
2023/01/13 00:08:13;;;;;;;5.47;2.10;;;7.50;99.90;;;;;;5029705;28;20033;-90
2023/01/13 00:10:39;;;;;;;2.57;1.13;;;7.40;99.90;;;;;;5033589;28;20052;-92
2023/01/13 00:13:04;;;;;;;2.10;1.00;;;7.50;99.90;;;;;;5002796;28;20486;-91
2023/01/13 00:15:31;;;;;;;1.53;0.90;;;7.50;99.90;;;;;;5021027;28;20022;-91
2023/01/13 00:17:56;;;;;;;2.17;1.17;;;7.50;99.90;;;;;;5025407;28;20526;-91
2023/01/13 00:20:22;;;;;;;3.40;1.30;;;7.60;99.90;;;;;;5033273;28;20103;-90
2023/01/13 00:22:47;;;;;;;2.60;1.10;;;7.60;99.90;;;;;;5015068;28;20021;-91
2023/01/13 00:25:13;;;;;;;1.57;0.90;;;7.60;99.90;;;;;;5011667;28;20018;-90
2023/01/13 00:27:38;;;;;;;2.60;1.13;;;7.60;99.90;;;;;;5022852;28;20019;-91
2023/01/13 00:30:05;;;;;;;2.10;1.10;;;7.60;99.90;;;;;;5033074;28;20029;-91
2023/01/13 00:32:31;;;;;;;2.60;0.97;;;7.60;99.90;;;;;;5015633;28;20120;-90
2023/01/13 00:34:57;;;;;;;1.87;0.90;;;7.60;99.90;;;;;;5032911;28;20104;-91
2023/01/13 00:37:23;;;;;;;2.50;0.87;;;7.60;99.90;;;;;;5014687;28;21753;-91
2023/01/13 00:39:50;;;;;;;2.70;1.00;;;7.60;99.90;;;;;;5032017;28;20045;-91
2023/01/13 00:45:00;;;;;;;2.40;1.00;;;7.60;99.90;;;;;;5030211;28;20247;-91
2023/01/13 00:47:25;;;;;;;5.13;0.93;;;7.70;99.90;;;;;;5015230;28;20462;-90
2023/01/13 00:49:51;;;;;;;1.50;0.90;;;7.70;99.90;;;;;;5032652;28;20381;-92
2023/01/13 00:52:16;;;;;;;3.67;1.43;;;7.70;99.90;;;;;;5012872;28;20028;-91
2023/01/13 00:54:42;;;;;;;3.40;1.43;;;7.60;99.90;;;;;;5031705;28;20033;-90
2023/01/13 00:57:07;;;;;;;4.07;1.10;;;7.60;99.90;;;;;;5031095;28;20070;-91
2023/01/13 00:59:33;;;;;;;3.13;1.23;;;7.60;99.90;;;;;;5032167;28;20094;-91
2023/01/13 01:01:58;;;;;;;3.63;1.40;;;7.50;99.90;;;;;;5027654;28;20379;-91
2023/01/13 01:04:24;;;;;;;3.00;1.33;;;7.60;99.90;;;;;;5028319;28;20025;-91
2023/01/13 01:06:50;;;;;;;3.80;1.40;;;7.60;99.90;;;;;;5023951;28;20086;-91
2023/01/13 01:09:16;;;;;;;2.97;1.03;;;7.60;99.90;;;;;;5030164;28;20151;-92
2023/01/13 01:11:42;;;;;;;5.10;1.60;;;7.60;99.90;;;;;;5014218;28;20026;-90
2023/01/13 01:14:10;;;;;;;4.63;1.60;;;7.70;99.90;;;;;;5026245;28;20030;-91
2023/01/13 01:16:38;;;;;;;3.63;1.50;;;7.70;99.90;;;;;;5030504;28;20022;-90
2023/01/13 01:19:04;;;;;;;2.13;1.30;;;7.70;99.90;;;;;;5031180;28;20049;-90
2023/01/13 01:21:29;;;;;;;3.47;1.40;;;7.70;99.90;;;;;;5029943;28;20041;-91
2023/01/13 01:23:58;;;;;;;1.67;1.10;;;7.70;99.90;;;;;;5032690;28;20025;-91
2023/01/13 01:26:25;;;;;;;2.40;1.53;;;7.70;99.90;;;;;;5014948;28;20025;-91
2023/01/13 01:28:52;;;;;;;4.17;1.40;;;7.80;99.90;;;;;;5032645;28;20029;-91
2023/01/13 01:31:26;;;;;;;3.27;1.00;;;7.80;99.90;;;;;;5032371;28;20026;-90
2023/01/13 01:33:53;;;;;;;1.67;0.80;;;7.80;99.90;;;;;;5028969;28;20055;-91
2023/01/13 01:36:20;;;;;;;1.50;0.77;;;7.90;99.90;;;;;;5032527;28;20366;-90
2023/01/13 01:38:47;;;;;;;2.03;0.90;;;7.90;99.90;;;;;;5030234;28;20497;-91
2023/01/13 01:41:19;;;;;;;1.10;0.80;;;7.90;99.90;;;;;;5014969;28;20494;-91
2023/01/13 01:44:01;;;;;;;2.33;0.80;;;7.90;99.90;;;;;;5036005;28;20034;-90
2023/01/13 01:46:31;;;;;;;1.47;0.63;;;7.90;99.90;;;;;;5036526;28;20036;-91
2023/01/13 01:49:15;;;;;;;1.80;0.70;;;7.90;99.90;;;;;;5032002;28;20057;-91
2023/01/13 01:51:52;;;;;;;1.10;0.70;;;7.80;99.90;;;;;;5017378;28;20029;-91
2023/01/13 01:54:32;;;;;;;2.87;0.80;;;7.80;99.90;;;;;;5031138;28;20033;-91
2023/01/13 01:56:58;;;;;;;2.90;0.93;;;7.80;99.90;;;;;;5021715;28;20452;-92
2023/01/13 01:59:25;;;;;;;0.93;0.63;;;7.80;99.90;;;;;;5018030;28;20059;-92
2023/01/13 02:01:50;;;;;;;1.63;0.80;;;7.80;99.90;;;;;;5039304;28;20028;-90
2023/01/13 02:04:39;;;;;;;1.70;0.97;;;7.80;99.90;;;;;;5051377;28;20057;-92
2023/01/13 02:07:05;;;;;;;4.10;1.20;;;7.80;99.90;;;;;;5050061;28;20029;-91
2023/01/13 02:09:32;;;;;;;3.47;0.90;;;7.70;99.90;;;;;;5054403;28;20038;-91
2023/01/13 02:14:43;;;;;;;2.00;0.90;;;7.70;99.90;;;;;;5031240;28;20032;-90
2023/01/13 02:17:20;;;;;;;1.33;0.80;;;7.70;99.90;;;;;;5029874;28;20025;-91
2023/01/13 02:20:10;;;;;;;3.53;0.90;;;7.70;99.90;;;;;;5033146;28;20751;-90
2023/01/13 02:23:08;;;;;;;2.67;0.80;;;7.70;99.90;;;;;;5030230;28;20017;-90
2023/01/13 02:25:47;;;;;;;2.23;0.70;;;7.70;99.90;;;;;;5025764;28;20382;-91
2023/01/13 02:28:34;;;;;;;1.40;0.80;;;7.70;99.90;;;;;;5013038;28;20021;-90
2023/01/13 02:34:07;;;;;;;3.67;0.93;;;7.70;99.90;;;;;;5030195;28;21424;-90
2023/01/13 02:36:48;;;;;;;1.40;0.77;;;7.80;99.90;;;;;;5028621;28;20132;-92
2023/01/13 02:39:22;;;;;;;1.73;0.70;;;7.80;99.90;;;;;;5026399;28;20525;-91
2023/01/13 02:45:10;;;;;;;2.93;0.60;;;7.80;99.90;;;;;;5002559;28;20841;-91
2023/01/13 02:48:06;;;;;;;1.73;0.80;;;7.80;99.90;;;;;;5015438;28;20064;-91
2023/01/13 02:50:38;;;;;;;1.40;0.80;;;7.80;99.90;;;;;;4984282;28;20030;-90
2023/01/13 02:53:27;;;;;;;1.53;0.80;;;7.80;99.90;;;;;;4984776;28;20384;-91
2023/01/13 02:55:55;;;;;;;1.03;0.80;;;7.80;99.90;;;;;;4967214;28;20220;-91
2023/01/13 02:58:26;;;;;;;1.73;0.83;;;7.80;99.90;;;;;;4974262;28;20026;-91
2023/01/13 03:00:51;;;;;;;1.57;0.60;;;7.90;99.90;;;;;;4983706;28;20078;-91
2023/01/13 03:03:17;;;;;;;2.03;0.80;;;8.00;99.90;;;;;;4957646;28;20023;-92
2023/01/13 03:05:45;;;;;;;1.40;0.60;;;8.00;99.90;;;;;;4976638;28;20097;-92
2023/01/13 03:08:27;;;;;;;1.13;0.70;;;8.00;99.90;;;;;;4971149;28;20062;-90
2023/01/13 03:11:02;;;;;;;0.60;0.50;;;8.00;99.90;;;;;;4969426;28;20570;-91
2023/01/13 03:13:47;;;;;;;1.42;0.80;;;8.00;99.90;;;;;;4972462;28;20081;-91
2023/01/13 03:16:39;;;;;;;0.88;0.70;;;8.00;99.90;;;;;;4968504;28;20092;-91
2023/01/13 03:19:29;;;;;;;0.90;0.63;;;8.00;99.90;;;;;;4971834;28;20156;-91
2023/01/13 03:22:07;;;;;;;1.60;0.80;;;8.00;99.90;;;;;;5007952;28;20025;-91
2023/01/13 03:24:53;;;;;;;1.83;0.80;;;8.10;99.90;;;;;;5024519;28;20108;-90
2023/01/13 03:27:32;;;;;;;1.90;0.80;;;8.10;99.90;;;;;;5014214;28;20042;-92
2023/01/13 03:30:07;;;;;;;1.20;0.70;;;8.10;99.90;;;;;;5034189;28;20121;-92
2023/01/13 03:32:41;;;;;;;1.33;0.70;;;8.10;99.90;;;;;;5034154;28;20172;-91
2023/01/13 03:35:14;;;;;;;2.63;0.97;;;8.20;99.90;;;;;;5015950;28;20067;-91
2023/01/13 03:37:47;;;;;;;1.43;0.70;;;8.20;99.90;;;;;;5029279;28;20017;-91
2023/01/13 03:40:17;;;;;;;0.97;0.60;;;8.20;99.90;;;;;;5025970;28;20144;-92
2023/01/13 03:44:20;;;;;;;0.73;0.73;;;8.20;99.90;;;;;;5032156;28;20025;-91
2023/01/13 03:45:34;;;;;;;0.93;0.70;;;8.20;99.90;;;;;;5016978;28;20025;-91
2023/01/13 03:48:05;;;;;;;0.80;0.60;;;8.30;99.90;;;;;;5033784;28;20040;-90
2023/01/13 03:50:37;;;;;;;1.30;0.70;;;8.30;99.90;;;;;;5033918;28;20052;-90
2023/01/13 03:53:13;;;;;;;1.47;1.10;;;8.30;99.90;;;;;;5008902;28;20435;-91
2023/01/13 03:55:44;;;;;;;0.60;0.50;;;8.30;99.90;;;;;;5031066;28;20047;-91
2023/01/13 03:58:21;;;;;;;1.60;0.63;;;8.30;99.90;;;;;;5025520;28;20014;-91
2023/01/13 04:00:56;;;;;;;0.70;0.60;;;8.30;99.90;;;;;;5033421;28;20402;-91
2023/01/13 04:03:57;;;;;;;1.35;0.77;;;8.30;99.90;;;;;;5033456;28;20034;-91
2023/01/13 04:07:00;;;;;;;0.87;0.60;;;8.30;99.90;;;;;;5021149;28;20133;-91
2023/01/13 04:09:39;;;;;;;2.10;0.83;;;8.50;99.90;;;;;;5032207;28;20041;-92
2023/01/13 04:12:14;;;;;;;0.73;0.60;;;8.50;99.90;;;;;;4998601;28;20529;-91
2023/01/13 04:14:41;;;;;;;1.38;0.70;;;8.60;99.90;;;;;;5019311;28;20025;-90
2023/01/13 04:17:07;;;;;;;2.77;0.70;;;8.60;99.90;;;;;;5031870;28;20083;-90
2023/01/13 04:19:32;;;;;;;1.87;0.70;;;8.70;99.90;;;;;;5031268;28;20021;-91
2023/01/13 04:21:58;;;;;;;3.03;0.93;;;8.70;99.90;;;;;;5034393;28;20021;-91
2023/01/13 04:24:24;;;;;;;2.30;0.70;;;8.70;99.90;;;;;;5033606;28;20034;-91
2023/01/13 04:26:50;;;;;;;1.00;0.63;;;8.70;99.90;;;;;;5005417;28;20034;-93
2023/01/13 04:29:15;;;;;;;1.97;0.90;;;8.80;99.90;;;;;;5033832;28;20056;-90
2023/01/13 04:31:41;;;;;;;1.07;0.77;;;8.80;99.90;;;;;;5015625;28;20462;-92
2023/01/13 04:34:07;;;;;;;3.10;0.70;;;8.80;99.90;;;;;;5033432;28;20026;-91
2023/01/13 04:36:32;;;;;;;2.00;0.60;;;8.80;99.90;;;;;;5010970;28;20056;-90
2023/01/13 04:38:58;;;;;;;2.33;0.80;;;8.80;99.90;;;;;;5031118;28;20022;-92
2023/01/13 04:41:24;;;;;;;0.80;0.60;;;8.70;99.90;;;;;;5015222;28;20139;-91
2023/01/13 04:43:49;;;;;;;2.43;1.10;;;8.70;99.90;;;;;;5031718;28;20029;-91
2023/01/13 04:46:15;;;;;;;2.67;0.80;;;8.70;99.90;;;;;;5010242;28;20018;-91
2023/01/13 04:48:40;;;;;;;1.23;0.70;;;8.70;99.90;;;;;;5028994;28;20406;-90
2023/01/13 04:51:06;;;;;;;0.90;0.60;;;8.70;99.90;;;;;;5024798;28;20048;-91
2023/01/13 04:53:31;;;;;;;2.37;0.70;;;8.60;99.90;;;;;;5030533;28;20021;-90
2023/01/13 04:55:57;;;;;;;1.93;0.83;;;8.70;99.90;;;;;;5020573;28;20026;-91
2023/01/13 04:58:22;;;;;;;1.83;0.80;;;8.70;99.90;;;;;;5026468;28;20018;-90
2023/01/13 05:00:49;;;;;;;1.57;0.67;;;8.70;99.90;;;;;;5033697;28;20026;-90
2023/01/13 05:03:15;;;;;;;2.30;0.80;;;8.70;99.90;;;;;;5033843;28;20028;-90
2023/01/13 05:05:40;;;;;;;1.33;0.70;;;8.70;99.90;;;;;;5015712;28;20532;-91
2023/01/13 05:08:07;;;;;;;2.40;0.80;;;8.70;99.90;;;;;;5016035;28;20044;-91
2023/01/13 05:10:33;;;;;;;2.80;0.80;;;8.70;99.90;;;;;;5033700;28;20029;-90
2023/01/13 05:18:28;;;;;;;0.97;0.60;;;8.70;99.90;;;;;;5018198;28;20141;-89
2023/01/13 05:20:54;;;;;;;2.37;0.83;;;8.80;99.90;;;;;;4999611;28;20022;-90
2023/01/13 05:26:04;;;;;;;2.10;0.80;;;8.70;99.90;;;;;;5037102;28;20091;-88
2023/01/13 05:28:33;;;;;;;1.10;0.73;;;8.70;99.90;;;;;;5036809;28;20025;-91
2023/01/13 05:30:59;;;;;;;1.57;0.70;;;8.80;99.90;;;;;;5022606;28;20026;-88
2023/01/13 05:33:25;;;;;;;2.67;0.80;;;8.80;99.90;;;;;;5028383;28;20040;-89
2023/01/13 05:35:50;;;;;;;2.63;0.90;;;8.80;99.90;;;;;;5035635;28;20029;-90
2023/01/13 05:38:17;;;;;;;0.97;0.70;;;8.80;99.90;;;;;;5026264;28;20091;-90
2023/01/13 05:43:28;;;;;;;1.77;0.77;;;8.90;99.90;;;;;;5037216;28;20032;-92
2023/01/13 05:46:04;;;;;;;1.10;0.70;;;8.90;99.90;;;;;;5036530;28;20448;-89
2023/01/13 05:48:38;;;;;;;1.13;0.80;;;8.90;99.90;;;;;;5016981;28;20048;-91
2023/01/13 05:51:06;;;;;;;3.57;0.70;;;8.90;99.90;;;;;;5025902;28;20026;-90
2023/01/13 05:53:32;;;;;;;2.20;0.80;;;9.00;99.90;;;;;;5036404;28;20017;-90
2023/01/13 05:55:58;;;;;;;4.70;0.77;;;8.90;99.90;;;;;;5036574;28;20025;-92
2023/01/13 05:58:26;;;;;;;1.30;0.80;;;8.90;99.90;;;;;;5018878;28;20018;-91
2023/01/13 06:00:51;;;;;;;2.13;0.80;;;8.90;99.90;;;;;;5027751;28;20457;-90
2023/01/13 06:03:19;;;;;;;1.77;0.70;;;9.00;99.90;;;;;;5021500;28;20160;-91
2023/01/13 06:05:45;;;;;;;1.00;0.60;;;9.00;99.90;;;;;;5048587;28;20009;-91
2023/01/13 06:08:11;;;;;;;1.43;0.70;;;9.00;99.90;;;;;;5057528;28;20052;-90
2023/01/13 06:10:37;;;;;;;1.03;0.70;;;9.00;99.90;;;;;;5052018;28;20022;-90
2023/01/13 06:13:05;;;;;;;1.07;0.70;;;9.10;99.90;;;;;;5039846;28;20109;-89
2023/01/13 06:15:31;;;;;;;0.93;0.70;;;9.10;99.90;;;;;;5054521;28;20029;-89
2023/01/13 06:17:57;;;;;;;0.67;0.60;;;9.10;99.90;;;;;;5052068;28;20096;-90
2023/01/13 06:20:23;;;;;;;1.63;0.80;;;9.10;99.90;;;;;;5049628;28;20033;-91
2023/01/13 06:22:51;;;;;;;0.83;0.60;;;9.00;99.90;;;;;;5032240;28;20068;-92
2023/01/13 06:25:57;;;;;;;1.10;0.80;;;9.00;99.90;;;;;;5039760;28;20040;-91
2023/01/13 06:28:23;;;;;;;1.30;0.95;;;9.00;99.90;;;;;;5035604;28;20041;-92
2023/01/13 06:30:54;;;;;;;1.70;0.87;;;9.10;99.90;;;;;;5012958;28;20029;-90
2023/01/13 06:33:28;;;;;;;1.87;0.73;;;9.10;99.90;;;;;;5013681;28;20037;-90
2023/01/13 06:35:59;;;;;;;1.53;0.70;;;9.20;99.90;;;;;;5029035;28;20030;-89
2023/01/13 06:38:27;;;;;;;1.00;0.80;;;9.20;99.90;;;;;;5015880;28;20028;-91
2023/01/13 06:40:53;;;;;;;1.20;0.70;;;9.20;99.90;;;;;;5030391;28;20038;-87
2023/01/13 06:43:19;;;;;;;1.90;1.13;;;9.20;99.90;;;;;;5028204;28;20032;-87
2023/01/13 06:45:49;;;;;;;1.50;0.73;;;9.20;99.90;;;;;;5029555;28;20029;-87
2023/01/13 06:48:14;;;;;;;1.20;0.77;;;9.20;99.90;;;;;;5025823;28;20037;-87
2023/01/13 06:50:41;;;;;;;2.60;0.77;;;9.20;99.90;;;;;;5001613;28;20029;-87
2023/01/13 06:53:07;;;;;;;2.20;0.90;;;9.20;99.90;;;;;;5024071;28;20022;-88
2023/01/13 06:55:32;;;;;;;1.03;0.70;;;9.30;99.90;;;;;;4999987;28;20052;-87
2023/01/13 06:57:58;;;;;;;1.37;0.83;;;9.30;99.90;;;;;;5023089;28;20045;-87
2023/01/13 07:00:25;;;;;;;1.03;0.70;;;9.30;99.90;;;;;;5025419;28;20084;-87
2023/01/13 07:02:50;;;;;;;2.80;0.80;;;9.30;99.90;;;;;;5025705;28;20027;-87
2023/01/13 07:05:17;;;;;;;1.17;0.70;;;9.30;99.90;;;;;;5027003;28;20018;-86
2023/01/13 07:07:43;;;;;;;0.80;0.67;;;9.30;99.90;;;;;;5025916;28;20091;-86
2023/01/13 07:10:20;;;;;;;2.53;0.90;;;9.30;99.90;;;;;;5026934;28;20036;-85
2023/01/13 07:16:01;;;;;;;2.03;0.90;;;9.20;99.90;;;;;;4998902;28;20068;-93
2023/01/13 07:18:30;;;;;;;2.53;0.90;;;9.20;99.90;;;;;;5037277;28;20025;-92
2023/01/13 07:20:58;;;;;;;1.20;0.70;;;9.20;99.90;;;;;;5021031;28;20377;-91
2023/01/13 07:23:26;;;;;;;1.87;0.80;;;9.20;99.90;;;;;;5038653;28;20029;-94
2023/01/13 07:25:56;;;;;;;2.93;0.87;;;9.20;99.90;;;;;;5016182;28;20417;-92
2023/01/13 07:28:23;;;;;;;3.80;0.70;;;9.20;99.90;;;;;;5028366;28;20454;-92
2023/01/13 07:30:48;;;;;;;1.97;0.83;;;9.20;99.90;;;;;;5038374;28;20439;-90
2023/01/13 07:33:14;;;;;;;1.40;0.70;;;9.20;99.90;;;;;;5038670;28;20049;-91
2023/01/13 07:35:39;;;;;;;1.23;0.60;;;9.20;99.90;;;;;;5013681;28;20120;-91
2023/01/13 07:38:05;;;;;;;1.87;0.90;;;9.30;99.90;;;;;;5037312;28;20036;-92
2023/01/13 07:40:30;;;;;;;1.33;0.90;;;9.30;99.90;;;;;;5017873;28;20068;-92
2023/01/13 07:45:40;;;;;;;4.33;1.00;;;9.40;99.90;;;;;;5037110;28;20394;-92
2023/01/13 07:48:05;;;;;;;1.33;0.70;;;9.40;99.90;;;;;;5036455;28;20029;-91
2023/01/13 07:50:31;;;;;;;1.73;1.00;;;9.40;99.90;;;;;;5036004;28;20033;-91
2023/01/13 07:52:57;;;;;;;2.67;1.20;;;9.40;99.90;;;;;;5035828;28;20025;-90
2023/01/13 07:55:23;;;;;;;1.77;0.70;;;9.40;99.90;;;;;;5036056;28;20038;-92
2023/01/13 07:57:49;;;;;;;1.97;0.70;;;9.40;99.90;;;;;;5037623;28;20025;-91
2023/01/13 08:00:15;;;;;;;2.50;0.80;;;9.40;99.90;;;;;;5018723;28;20017;-92
2023/01/13 08:02:40;;;;;;;0.90;0.70;;;9.30;99.90;;;;;;5037898;28;20029;-93
2023/01/13 08:05:07;;;;;;;2.00;0.80;;;9.30;99.90;;;;;;5018130;28;20083;-91
2023/01/13 08:07:32;;;;;;;1.70;0.70;;;9.40;99.90;;;;;;5035650;28;20036;-91
2023/01/13 08:09:58;;;;;;;1.13;0.70;;;9.40;99.90;;;;;;5035972;28;20100;-92
2023/01/13 08:15:08;;;;;;;1.27;0.63;;;9.40;99.90;;;;;;5025350;28;20480;-87
2023/01/13 08:17:35;;;;;;;0.90;0.70;;;9.40;99.90;;;;;;5025982;28;20024;-86
2023/01/13 08:20:00;;;;;;;1.20;0.70;;;9.40;99.90;;;;;;5004479;28;20458;-86
2023/01/13 08:22:26;;;;;;;0.67;0.60;;;9.40;99.90;;;;;;5025562;28;20076;-85
2023/01/13 08:24:51;;;;;;;1.80;0.80;;;9.50;99.90;;;;;;5024764;28;20488;-86
2023/01/13 08:27:19;;;;;;;1.03;0.60;;;9.50;99.90;;;;;;5002332;28;20017;-86
2023/01/13 08:29:46;;;;;;;1.87;0.90;;;9.60;99.90;;;;;;5024189;28;20033;-86
2023/01/13 08:32:17;;;;;;;1.00;0.70;;;9.60;99.90;;;;;;5006288;28;20484;-87
2023/01/13 08:34:56;;;;;;;1.40;0.80;;;9.60;99.90;;;;;;5024200;28;20436;-86
2023/01/13 08:37:26;;;;;;;0.90;0.63;;;9.70;99.90;;;;;;5022684;28;20373;-87
2023/01/13 08:39:52;;;;;;;1.43;0.77;;;9.70;99.90;;;;;;5026976;28;20036;-85
2023/01/13 08:42:20;;;;;;;1.17;0.60;;;9.70;99.90;;;;;;5005116;28;21505;-86
2023/01/13 08:44:47;;;;;;;0.80;0.70;;;9.70;99.90;;;;;;5024643;28;20029;-85
2023/01/13 08:47:16;;;;;;;1.43;0.90;;;9.80;99.90;;;;;;5026871;28;20100;-85
2023/01/13 08:49:41;;;;;;;0.93;0.60;;;9.80;99.90;;;;;;5025303;28;20026;-87
2023/01/13 08:52:07;;;;;;;1.20;0.90;;;9.90;99.90;;;;;;5024092;28;20018;-87
2023/01/13 08:54:33;;;;;;;0.87;0.60;;;9.90;99.90;;;;;;5025419;28;20845;-87
2023/01/13 08:56:58;;;;;;;1.63;0.80;;;9.90;99.90;;;;;;5007041;28;20563;-86
2023/01/13 08:59:24;;;;;;;1.73;0.80;;;10.00;99.90;;;;;;5006647;28;20105;-85
2023/01/13 09:01:49;;;;;;;0.70;0.63;;;10.00;99.90;;;;;;5024116;28;20018;-87
2023/01/13 09:04:19;;;;;;;1.50;0.70;;;10.00;99.90;;;;;;5025007;28;20063;-86
2023/01/13 09:06:45;;;;;;;1.53;0.63;;;10.00;99.90;;;;;;5022414;28;20111;-86
2023/01/13 09:09:12;;;;;;;2.87;0.87;;;10.10;99.90;;;;;;5001836;28;20108;-86
2023/01/13 09:14:30;;;;;;;1.37;0.77;;;10.10;99.90;;;;;;5017310;28;20155;-85
2023/01/13 09:16:56;;;;;;;1.13;0.70;;;10.10;99.90;;;;;;5015572;28;20029;-86
2023/01/13 09:19:22;;;;;;;0.70;0.50;;;10.20;99.90;;;;;;5019040;28;20021;-85
2023/01/13 09:21:48;;;;;;;0.60;0.50;;;10.20;99.90;;;;;;5019480;28;20040;-86
2023/01/13 09:24:13;;;;;;;3.23;0.80;;;10.20;99.90;;;;;;5017771;28;20163;-86
2023/01/13 09:26:39;;;;;;;2.23;0.70;;;10.30;99.90;;;;;;5020436;28;20041;-87
2023/01/13 09:29:04;;;;;;;0.63;0.50;;;10.30;99.90;;;;;;5001081;28;20033;-86
2023/01/13 09:31:33;;;;;;;2.07;0.60;;;10.30;99.90;;;;;;5023015;28;20052;-86
2023/01/13 09:36:44;;;;;;;1.57;0.77;;;10.30;99.90;;;;;;5024040;28;20044;-85
2023/01/13 09:39:10;;;;;;;3.00;0.70;;;10.40;99.90;;;;;;5007722;28;20026;-86
2023/01/13 09:44:39;;;;;;;1.17;0.70;;;10.40;99.90;;;;;;5027609;28;20059;-87
2023/01/13 09:47:21;;;;;;;2.40;0.70;;;10.50;99.90;;;;;;5004007;28;20510;-86
2023/01/13 09:49:47;;;;;;;0.97;0.63;;;10.70;99.90;;;;;;5005478;28;20393;-86
2023/01/13 09:52:18;;;;;;;1.50;0.83;;;10.70;99.90;;;;;;5024396;28;20036;-86
2023/01/13 09:55:01;;;;;;;2.40;1.17;;;10.70;99.90;;;;;;5027071;28;20037;-86
2023/01/13 09:57:29;;;;;;;2.13;0.63;;;10.70;99.90;;;;;;5024361;28;20025;-86
2023/01/13 09:59:57;;;;;;;2.57;0.50;;;10.70;99.90;;;;;;5025929;28;20478;-87
2023/01/13 10:02:44;;;;;;;2.90;0.70;;;10.70;99.90;;;;;;5023448;28;20029;-87
2023/01/13 10:05:19;;;;;;;1.67;0.70;;;10.60;99.90;;;;;;5028709;28;20049;-86
2023/01/13 10:08:00;;;;;;;1.57;0.50;;;10.60;99.90;;;;;;5012211;28;20071;-86
2023/01/13 10:10:44;;;;;;;0.73;0.63;;;10.60;99.90;;;;;;5026435;28;20062;-85
2023/01/13 10:13:22;;;;;;;1.53;0.63;;;10.60;99.90;;;;;;5024971;28;20037;-86
2023/01/13 10:16:18;;;;;;;7.03;0.70;;;10.60;99.90;;;;;;5028167;28;20104;-86
2023/01/13 10:18:49;;;;;;;1.08;0.60;;;10.70;99.90;;;;;;5018139;28;20033;-93
2023/01/13 10:21:26;;;;;;;0.77;0.60;;;10.60;99.90;;;;;;5028795;28;20029;-88
2023/01/13 10:24:06;;;;;;;0.57;0.57;;;10.70;99.90;;;;;;5034927;28;20544;-87
2023/01/13 10:27:07;;;;;;;2.40;0.70;;;10.70;99.90;;;;;;5023633;28;20111;-87
2023/01/13 10:29:34;;;;;;;1.07;0.53;;;10.70;99.90;;;;;;5004073;28;20044;-87
2023/01/13 10:32:00;;;;;;;0.63;0.50;;;10.80;99.90;;;;;;5025944;28;20042;-88
2023/01/13 10:34:27;;;;;;;1.37;0.50;;;10.90;99.90;;;;;;5027987;28;20052;-87
2023/01/13 10:37:00;;;;;;;1.10;0.60;;;11.10;99.90;;;;;;5031077;28;20116;-89
2023/01/13 10:39:27;;;;;;;0.60;0.57;;;11.20;99.90;;;;;;5008626;28;20093;-88
2023/01/13 10:42:10;;;;;;;2.93;1.10;;;11.40;99.90;;;;;;5022851;28;20045;-77
2023/01/13 10:44:55;;;;;;;1.63;0.63;;;11.50;99.90;;;;;;5031326;28;20487;-72
2023/01/13 10:47:33;;;;;;;3.10;0.70;;;11.50;99.90;;;;;;5014842;28;20481;-71
2023/01/13 10:50:11;;;;;;;0.53;0.50;;;11.60;99.90;;;;;;5031709;28;20021;-71
2023/01/13 10:52:57;;;;;;;1.13;0.60;;;11.70;99.90;;;;;;5026544;28;20040;-78
2023/01/13 10:55:27;;;;;;;1.02;0.60;;;11.80;99.90;;;;;;5019652;28;20082;-85
2023/01/13 10:57:53;;;;;;;2.35;0.70;;;11.90;99.90;;;;;;5021233;28;20044;-84
2023/01/13 11:00:29;;;;;;;3.20;0.70;;;11.90;99.90;;;;;;5017568;28;20057;-84
2023/01/13 11:03:20;;;;;;;1.33;0.70;;;11.90;99.90;;;;;;5015712;28;20074;-85
2023/01/13 11:05:57;;;;;;;0.95;0.50;;;12.10;99.90;;;;;;5020509;28;20034;-86
2023/01/13 11:08:49;;;;;;;3.15;0.65;;;12.00;99.90;;;;;;5018931;28;20108;-86
2023/01/13 11:11:37;;;;;;;0.60;0.60;;;11.90;99.90;;;;;;5017974;28;20056;-86
2023/01/13 11:14:41;;;;;;;1.60;0.60;;;11.80;99.90;;;;;;5006140;28;20061;-87
2023/01/13 11:17:21;;;;;;;4.28;0.93;;;11.70;99.90;;;;;;5015104;28;20112;-87
2023/01/13 11:19:53;;;;;;;1.35;0.55;;;11.40;99.90;;;;;;5024307;28;20079;-86
2023/01/13 11:22:26;;;;;;;1.03;0.70;;;11.20;99.90;;;;;;5025050;28;20116;-86
2023/01/13 11:24:55;;;;;;;3.55;0.50;;;11.00;99.90;;;;;;5021098;28;20022;-86
2023/01/13 11:27:51;;;;;;;1.60;0.70;;;10.80;99.90;;;;;;5022542;28;20025;-86
2023/01/13 11:30:37;;;;;;;1.15;0.60;;;10.90;99.90;;;;;;5008186;28;20529;-86
2023/01/13 11:33:09;;;;;;;0.95;0.70;;;11.00;99.90;;;;;;5025443;28;20149;-87
2023/01/13 11:35:40;;;;;;;1.67;0.50;;;11.00;99.90;;;;;;5024089;28;20057;-86
2023/01/13 11:38:17;;;;;;;1.13;0.67;;;10.90;99.90;;;;;;5032604;28;20454;-91
2023/01/13 11:40:47;;;;;;;2.23;0.50;;;10.90;99.90;;;;;;5022265;28;20122;-86
2023/01/13 11:43:35;;;;;;;1.10;0.57;;;10.80;99.90;;;;;;5019333;28;20132;-85
2023/01/13 11:46:00;;;;;;;0.40;0.40;;;10.80;99.90;;;;;;5021610;28;20419;-85
2023/01/13 11:48:29;;;;;;;1.13;0.67;;;10.90;99.90;;;;;;5020849;28;20040;-85
2023/01/13 11:51:03;;;;;;;1.10;0.70;;;10.80;99.90;;;;;;5016954;28;20053;-85
2023/01/13 11:53:39;;;;;;;1.13;0.60;;;10.70;99.90;;;;;;5024665;28;20037;-85
2023/01/13 11:56:08;;;;;;;2.40;0.70;;;10.70;99.90;;;;;;5008210;28;20159;-80
2023/01/13 11:58:46;;;;;;;1.47;0.97;;;10.70;99.90;;;;;;5020461;28;20030;-85
2023/01/13 12:01:38;;;;;;;2.00;0.70;;;10.70;99.90;;;;;;5025627;28;20057;-85
2023/01/13 12:04:35;;;;;;;1.23;0.87;;;10.80;99.90;;;;;;5020758;28;20116;-80
2023/01/13 12:07:17;;;;;;;2.57;0.70;;;10.90;99.90;;;;;;5015910;28;20038;-79
2023/01/13 12:10:03;;;;;;;2.40;0.80;;;10.90;99.90;;;;;;5017905;28;20556;-80
2023/01/13 12:13:02;;;;;;;0.80;0.70;;;10.90;99.90;;;;;;5017749;28;20064;-80
2023/01/13 12:15:51;;;;;;;1.80;0.77;;;10.80;99.90;;;;;;5014312;28;20076;-80
2023/01/13 12:18:21;;;;;;;1.60;0.70;;;10.70;99.90;;;;;;5017857;28;20097;-81
2023/01/13 12:20:58;;;;;;;0.77;0.60;;;10.70;99.90;;;;;;5017702;28;20037;-81
2023/01/13 12:23:27;;;;;;;1.47;0.87;;;10.70;99.90;;;;;;4991038;28;20028;-81
2023/01/13 12:25:58;;;;;;;2.53;0.80;;;10.70;99.90;;;;;;5012087;28;20109;-81
2023/01/13 12:28:31;;;;;;;3.97;1.10;;;10.60;99.90;;;;;;5014475;28;20087;-80
2023/01/13 12:31:01;;;;;;;1.53;0.90;;;10.60;99.90;;;;;;4991470;28;20030;-81
2023/01/13 12:33:48;;;;;;;2.50;0.90;;;10.50;99.90;;;;;;4995380;28;20113;-81
2023/01/13 12:36:34;;;;;;;3.70;0.80;;;10.60;99.90;;;;;;5015952;28;20025;-80
2023/01/13 12:39:15;;;;;;;1.60;0.80;;;10.50;99.90;;;;;;5014109;28;20041;-81
2023/01/13 12:45:09;;;;;;;1.50;0.90;;;10.60;99.90;;;;;;5008930;28;20037;-80
2023/01/13 12:47:43;;;;;;;1.87;1.20;;;10.50;99.90;;;;;;4994003;28;20034;-80
2023/01/13 12:50:20;;;;;;;1.90;0.80;;;10.40;99.90;;;;;;4991251;28;20034;-81
2023/01/13 12:52:47;;;;;;;2.93;0.90;;;10.30;99.90;;;;;;5015386;28;20025;-80
2023/01/13 12:55:18;;;;;;;1.80;1.10;;;10.20;99.90;;;;;;5014649;28;20025;-81
2023/01/13 12:58:14;;;;;;;1.47;0.90;;;10.10;99.90;;;;;;5014376;28;20086;-81
2023/01/13 13:00:39;;;;;;;3.40;1.02;;;9.90;99.90;;;;;;5015275;28;20037;-81
2023/01/13 13:03:11;;;;;;;3.13;1.07;;;9.80;99.90;;;;;;4992784;28;20619;-81
2023/01/13 13:06:04;;;;;;;1.43;0.97;;;9.70;99.90;;;;;;5016239;28;20025;-81
2023/01/13 13:08:45;;;;;;;2.43;0.90;;;9.60;99.90;;;;;;4997440;28;20040;-80
2023/01/13 13:14:00;;;;;;;1.77;0.90;;;9.60;99.90;;;;;;5014272;28;20607;-81
2023/01/13 13:16:26;;;;;;;1.57;0.90;;;9.60;99.90;;;;;;5016502;28;20359;-85
2023/01/13 13:19:16;;;;;;;0.70;0.70;;;9.60;99.90;;;;;;4995278;28;20060;-85
2023/01/13 13:22:15;;;;;;;1.63;0.70;;;9.70;99.90;;;;;;5014212;28;20560;-85
2023/01/13 13:24:48;;;;;;;1.53;0.90;;;9.80;99.90;;;;;;4995886;28;20040;-81
2023/01/13 13:27:19;;;;;;;1.67;0.80;;;9.70;99.90;;;;;;5014387;28;20034;-79
2023/01/13 13:30:09;;;;;;;1.33;0.90;;;9.70;99.90;;;;;;5016473;28;20064;-80
2023/01/13 13:33:04;;;;;;;2.90;0.80;;;9.70;99.90;;;;;;5015562;28;20029;-79
2023/01/13 13:35:39;;;;;;;1.55;0.70;;;9.80;99.90;;;;;;4982091;28;20075;-79
2023/01/13 13:47:00;;;;;;;0.87;0.63;;;9.80;99.90;;;;;;5013573;28;20061;-80
2023/01/13 13:49:39;;;;;;;1.27;0.80;;;9.70;99.90;;;;;;5024316;28;20022;-81
2023/01/13 13:52:09;;;;;;;1.73;0.70;;;9.80;99.90;;;;;;5023651;28;20663;-81
2023/01/13 13:54:38;;;;;;;1.27;0.70;;;9.80;99.90;;;;;;5024184;28;20014;-81
2023/01/13 13:57:12;;;;;;;1.17;0.70;;;9.90;99.90;;;;;;5026369;28;20029;-80
2023/01/13 13:59:38;;;;;;;0.98;0.60;;;9.90;99.90;;;;;;5022615;28;20029;-86
2023/01/13 14:02:17;;;;;;;0.90;0.50;;;9.80;99.90;;;;;;5005407;28;20036;-86
2023/01/13 14:04:43;;;;;;;1.00;0.47;;;9.50;99.90;;;;;;5019266;28;20042;-85
2023/01/13 14:07:20;;;;;;;1.17;0.70;;;8.60;99.90;;;;;;5019593;28;21405;-85
2023/01/13 14:09:49;;;;;;;0.60;0.60;;;7.70;99.90;;;;;;5022290;28;20029;-84
2023/01/13 14:12:18;;;;;;;1.47;0.60;;;7.10;99.90;;;;;;5020338;28;20021;-85
2023/01/13 14:14:46;;;;;;;1.90;0.70;;;6.60;99.90;;;;;;5018250;28;20037;-85